x

Point Arguello, Ca (ptgc1) Weather Station

2:00am - Wed 5th Aug 2015 All times are PDT. -7 hours from GMT.

  • Wind
    26mph, 30mph gusts
  • Air Temp 62°f
  • Sea Pressure 1014.3mb
  • Point Arguello, Ca
  • Point Arguello, Ca

More Historic Weather Station data

Upgrade to MSW Pro to gain access to the past 30 days of data for over 8000 Wavebouys and Weather Stations around the globe.

Join Pro

Comparision Forecast

View Surf forecast
   
Wed 08/05 2:00am 26 30 mph 1014.3mb 62f
1:00am 26 29 mph 1014.7mb 63f
12:00am 25 28 mph 1014.9mb 63f
Tue 08/04 11:00pm 24 25 mph 1015.8mb 63f
10:00pm 24 28 mph 1015.5mb 63f
9:00pm 24 28 mph 1015.1mb 64f
8:00pm 23 24 mph 1015.3mb 64f
7:00pm 22 24 mph 1015.2mb 64f
6:00pm 21 22 mph 1015.3mb 64f
5:00pm 22 23 mph 1015.8mb 63f
4:00pm 21
mph
1015.8mb 62f
3:00pm 21 22 mph 1016.2mb 63f
2:00pm 21 22 mph 1016.4mb 63f
1:00pm 24 25 mph 1016.1mb 63f
12:00pm 23 24 mph 1016.3mb 62f
11:00am 22 24 mph 1015.5mb 63f
10:00am 23 25 mph 1015.3mb 62f
9:00am 25 28 mph 1014.8mb 63f
8:00am 24 26 mph 1014.7mb 63f
7:00am 25 28 mph 1014.3mb 62f
6:00am 26 28 mph 1013.7mb 60f
5:00am 29 33 mph 1013.5mb 62f
4:00am 29 32 mph 1013.6mb 62f
3:00am 25 29 mph 1014mb 62f
2:00am 30 33 mph 1014mb 63f
1:00am 31 34 mph 1013.5mb 63f
12:00am 29 32 mph 1014.1mb 63f
Mon 08/03 11:00pm 26 29 mph 1014.3mb 63f
10:00pm 30 32 mph 1014.2mb 63f
9:00pm 28 29 mph 1013.8mb 63f
8:00pm 29 32 mph 1013.4mb 63f
7:00pm 25 28 mph 1013.7mb 63f
6:00pm 24 25 mph 1014mb 63f
5:00pm 23 25 mph 1014.1mb 63f
4:00pm 21 22 mph 1014.6mb 63f
3:00pm 21 22 mph 1014.6mb 63f
2:00pm 21 23 mph 1014.8mb 63f
1:00pm 23 25 mph 1014.5mb 63f
12:00pm 23 24 mph 1014.8mb 63f
11:00am 24 26 mph 1014.4mb 63f
10:00am 22 24 mph 1014.4mb 62f
9:00am 22 25 mph 1014.1mb 63f
8:00am 24 26 mph 1013.6mb 62f
7:00am 30 33 mph 1013.3mb 62f
6:00am 32 36 mph 1012.7mb 62f
5:00am 29 32 mph 1013.1mb 62f
4:00am 28 31 mph 1013mb 62f
3:00am 28 30 mph 1012.7mb 63f
2:00am 26 31 mph 1012.7mb 62f
1:00am 28 30 mph 1012.9mb 62f
12:00am 29 31 mph 1012.7mb 62f
Sun 08/02 11:00pm 30 33 mph 1012.5mb 62f
10:00pm 26 29 mph 1012.9mb 62f
9:00pm 25 29 mph 1012.6mb 62f
8:00pm 25 26 mph 1012.5mb 62f
7:00pm 25 28 mph 1012.2mb 63f
6:00pm 26 29 mph 1012.4mb 63f
5:00pm 26 29 mph 1012.7mb 63f
4:00pm 24 26 mph 1013.2mb 63f
3:00pm 24 25 mph 1013.7mb 63f
2:00pm 22 23 mph 1014.1mb 62f
1:00pm 20 21 mph 1014.5mb 62f
12:00pm 23 24 mph 1014.4mb 62f
11:00am 23 25 mph 1014.7mb 62f
10:00am 26 28 mph 1014.7mb 61f
9:00am 26 28 mph 1014.7mb 61f
8:00am 24 26 mph 1014.2mb 61f
7:00am 26 29 mph 1013.9mb 61f
6:00am 29 30 mph 1013.3mb 61f
5:00am 28 30 mph 1012.9mb 61f
4:00am 28 30 mph 1012.9mb 62f
3:00am 30 31 mph 1013mb 62f
2:00am 30 32 mph 1013.1mb 62f
1:00am 29 32 mph 1013.3mb 62f
12:00am 29 31 mph 1013.4mb 62f
Sat 08/01 11:00pm 28 31 mph 1013.8mb 63f
10:00pm 26 30 mph 1014.3mb 63f
9:00pm 26 31 mph 1014mb 63f
8:00pm 25 29 mph 1014mb 63f
7:00pm 24 26 mph 1014mb 63f
6:00pm 23 25 mph 1014.1mb 63f
5:00pm 22 24 mph 1014.4mb 63f
4:00pm 22 24 mph 1014.7mb 63f
3:00pm 20 23 mph 1014.9mb 63f
2:00pm 22 23 mph 1015.2mb 62f
1:00pm 16 17 mph 1015.8mb 62f
12:00pm 18 21 mph 1016.1mb 62f
11:00am 22 23 mph 1016mb 61f